Overview Statistics Trail Chart Weather Telemetry Raw packets
 

This is the latest recevied weather packets stored in our database for station/object EA3CH. If no packets are shown the sender has not sent any weather packets the latest 10 day(s).

<< 18 19 20 21 22 23 24 >>
Time Temp. Humidity Pressure Rain* Wind** Luminosity Snow
1788188407 27.78° C 64% 1020.1 hPa 0 mm - 0 W/m² -
1788188404 27.78° C 73% 1020.3 hPa 0 mm - 0 W/m² -
1788187504 28.33° C 69% 1020.4 hPa 0 mm - 0 W/m² -
1788186603 30° C 64% 1020.2 hPa 0 mm - 0 W/m² -
1788185706 30° C 50% 1020.1 hPa 0 mm - 0 W/m² -
1788185704 30° C 60% 1020.2 hPa 0 mm - 0 W/m² -
1788184804 30.56° C 58% 1020.4 hPa 0 mm - 0 W/m² -
1788183903 30.56° C 55% 1020.3 hPa 0 mm - 0 W/m² -
1788183004 30.56° C 54% 1020.4 hPa 0 mm - 0 W/m² -
1788182104 31.11° C 52% 1020.5 hPa 0 mm - 0 W/m² -
1788181204 30.56° C 54% 1020.6 hPa 0 mm - 0 W/m² -
1788180306 30.56° C 44% 1020.5 hPa 0 mm - 0 W/m² -
1788180304 31.11° C 53% 1020.7 hPa 0 mm - 0 W/m² -
1788179406 30.56° C 43% 1020.6 hPa 0 mm - 0 W/m² -
1788179404 30.56° C 53% 1020.7 hPa 0 mm - 0 W/m² -
1788178503 30° C 54% 1020.9 hPa 0 mm - 0 W/m² -
1788177604 29.44° C 53% 1020.8 hPa 0 mm - 0 W/m² -
1788176704 30° C 51% 1021 hPa 0 mm - 0 W/m² -
1788175806 29.44° C 43% 1021 hPa 0 mm - 0 W/m² -
1788175804 29.44° C 52% 1021.1 hPa 0 mm - 0 W/m² -
1788174906 29.44° C 44% 1020.9 hPa 0 mm - 0 W/m² -
1788174903 28.89° C 53% 1021.1 hPa 0 mm - 0 W/m² -
1788174006 28.33° C 47% 1021 hPa 0 mm - 0 W/m² -
1788174004 28.33° C 56% 1021.2 hPa 0 mm - 0 W/m² -
1788173103 27.78° C 59% 1021.3 hPa 0 mm - 0 W/m² -

* Rain latest hour (hover to see other rain measurements)
** Current wind speed in m/s (hover to see current wind gust speed)